sensor_id;sensor_type;location;lat;lon;timestamp;pressure;altitude;pressure_sealevel;temperature;humidity
39491;BME280;25175;50.140;18.990;2023-05-24T00:00:25;98153.03;;;17.21;65.26
39491;BME280;25175;50.140;18.990;2023-05-24T00:03:31;98161.75;;;17.21;65.58
39491;BME280;25175;50.140;18.990;2023-05-24T00:06:41;98165.47;;;17.20;65.64
39491;BME280;25175;50.140;18.990;2023-05-24T00:09:49;98167.31;;;17.20;65.58
39491;BME280;25175;50.140;18.990;2023-05-24T00:12:58;98162.78;;;17.15;65.67
39491;BME280;25175;50.140;18.990;2023-05-24T00:16:07;98158.25;;;17.11;65.70
39491;BME280;25175;50.140;18.990;2023-05-24T00:19:13;98158.25;;;17.06;65.91
39491;BME280;25175;50.140;18.990;2023-05-24T00:22:44;98104.44;;;16.64;66.22
39491;BME280;25175;50.140;18.990;2023-05-24T00:25:49;98154.19;;;16.93;66.21
39491;BME280;25175;50.140;18.990;2023-05-24T00:29:02;98166.16;;;17.01;66.27
39491;BME280;25175;50.140;18.990;2023-05-24T00:37:08;98160.25;;;16.89;66.55
39491;BME280;25175;50.140;18.990;2023-05-24T00:40:40;98152.03;;;16.85;66.55
39491;BME280;25175;50.140;18.990;2023-05-24T00:43:49;98178.50;;;16.80;66.46
39491;BME280;25175;50.140;18.990;2023-05-24T00:46:59;98172.59;;;16.73;66.71
39491;BME280;25175;50.140;18.990;2023-05-24T00:50:15;98170.97;;;16.67;66.94
39491;BME280;25175;50.140;18.990;2023-05-24T00:57:27;98173.53;;;16.52;67.26
39491;BME280;25175;50.140;18.990;2023-05-24T01:00:50;98166.06;;;16.49;67.20
39491;BME280;25175;50.140;18.990;2023-05-24T01:04:03;98175.53;;;16.45;67.40
39491;BME280;25175;50.140;18.990;2023-05-24T01:07:20;98112.09;;;15.93;67.38
39491;BME280;25175;50.140;18.990;2023-05-24T01:10:42;98183.66;;;16.34;67.49
39491;BME280;25175;50.140;18.990;2023-05-24T01:14:09;98183.38;;;16.30;67.61
39491;BME280;25175;50.140;18.990;2023-05-24T01:17:34;98182.81;;;16.28;67.48
39491;BME280;25175;50.140;18.990;2023-05-24T01:20:58;98191.03;;;16.27;67.61
39491;BME280;25175;50.140;18.990;2023-05-24T01:24:28;98188.06;;;16.23;67.63
39491;BME280;25175;50.140;18.990;2023-05-24T01:27:51;98187.81;;;16.25;67.43
39491;BME280;25175;50.140;18.990;2023-05-24T01:31:17;98070.00;;;15.43;67.51
39491;BME280;25175;50.140;18.990;2023-05-24T01:35:02;98198.59;;;16.18;67.56
39491;BME280;25175;50.140;18.990;2023-05-24T01:38:23;98186.94;;;16.14;67.40
39491;BME280;25175;50.140;18.990;2023-05-24T01:41:43;98192.47;;;16.13;67.60
39491;BME280;25175;50.140;18.990;2023-05-24T01:45:17;98191.94;;;16.11;67.80
39491;BME280;25175;50.140;18.990;2023-05-24T01:48:56;98189.53;;;16.09;67.72
39491;BME280;25175;50.140;18.990;2023-05-24T01:52:15;98196.34;;;16.05;67.81
39491;BME280;25175;50.140;18.990;2023-05-24T01:55:26;98190.75;;;16.02;67.76
39491;BME280;25175;50.140;18.990;2023-05-24T01:58:46;97902.59;;;14.15;67.54
39491;BME280;25175;50.140;18.990;2023-05-24T02:01:59;98205.00;;;15.96;67.68
39491;BME280;25175;50.140;18.990;2023-05-24T02:05:08;98205.25;;;15.94;67.92
39491;BME280;25175;50.140;18.990;2023-05-24T02:08:14;98207.66;;;15.96;68.00
39491;BME280;25175;50.140;18.990;2023-05-24T02:11:21;98212.94;;;15.96;67.58
39491;BME280;25175;50.140;18.990;2023-05-24T02:14:27;98214.22;;;15.93;67.69
39491;BME280;25175;50.140;18.990;2023-05-24T02:17:43;98212.63;;;15.93;67.73
39491;BME280;25175;50.140;18.990;2023-05-24T02:20:52;98212.88;;;15.91;67.60
39491;BME280;25175;50.140;18.990;2023-05-24T02:23:58;98218.94;;;15.87;67.61
39491;BME280;25175;50.140;18.990;2023-05-24T02:27:04;98219.91;;;15.81;67.78
39491;BME280;25175;50.140;18.990;2023-05-24T02:30:12;98228.84;;;15.75;68.10
39491;BME280;25175;50.140;18.990;2023-05-24T02:33:23;98221.09;;;15.68;68.35
39491;BME280;25175;50.140;18.990;2023-05-24T02:36:31;98226.63;;;15.67;68.32
39491;BME280;25175;50.140;18.990;2023-05-24T02:40:01;98234.75;;;15.65;68.28
39491;BME280;25175;50.140;18.990;2023-05-24T02:43:13;98226.53;;;15.61;68.40
39491;BME280;25175;50.140;18.990;2023-05-24T02:46:19;98224.38;;;15.58;68.43
39491;BME280;25175;50.140;18.990;2023-05-24T02:49:44;98228.31;;;15.56;68.27
39491;BME280;25175;50.140;18.990;2023-05-24T02:53:05;98231.19;;;15.54;68.41
39491;BME280;25175;50.140;18.990;2023-05-24T02:56:28;98241.53;;;15.56;68.27
39491;BME280;25175;50.140;18.990;2023-05-24T02:59:48;98236.25;;;15.56;68.18
39491;BME280;25175;50.140;18.990;2023-05-24T03:03:09;98233.53;;;15.51;68.33
39491;BME280;25175;50.140;18.990;2023-05-24T03:06:45;98247.75;;;15.45;68.27
39491;BME280;25175;50.140;18.990;2023-05-24T03:10:40;98249.56;;;15.44;68.51
39491;BME280;25175;50.140;18.990;2023-05-24T03:17:53;98249.50;;;15.39;68.37
39491;BME280;25175;50.140;18.990;2023-05-24T03:21:15;98244.78;;;15.42;68.36
39491;BME280;25175;50.140;18.990;2023-05-24T03:24:44;98248.00;;;15.43;68.32
39491;BME280;25175;50.140;18.990;2023-05-24T03:28:12;98249.81;;;15.43;68.09
39491;BME280;25175;50.140;18.990;2023-05-24T03:31:34;98238.94;;;15.39;68.11
39491;BME280;25175;50.140;18.990;2023-05-24T03:34:54;98254.00;;;15.39;67.89
39491;BME280;25175;50.140;18.990;2023-05-24T03:38:12;97951.72;;;13.50;68.11
39491;BME280;25175;50.140;18.990;2023-05-24T03:41:28;98251.97;;;15.46;67.86
39491;BME280;25175;50.140;18.990;2023-05-24T03:44:37;98257.59;;;15.49;67.79
39491;BME280;25175;50.140;18.990;2023-05-24T03:47:51;98255.25;;;15.53;67.77
39491;BME280;25175;50.140;18.990;2023-05-24T03:50:59;98261.41;;;15.58;67.76
39491;BME280;25175;50.140;18.990;2023-05-24T03:54:05;98253.97;;;15.55;67.51
39491;BME280;25175;50.140;18.990;2023-05-24T03:57:14;98261.34;;;15.53;67.84
39491;BME280;25175;50.140;18.990;2023-05-24T04:00:27;98267.19;;;15.55;67.76
39491;BME280;25175;50.140;18.990;2023-05-24T04:03:49;98265.66;;;15.59;67.78
39491;BME280;25175;50.140;18.990;2023-05-24T04:07:17;98275.72;;;15.62;67.78
39491;BME280;25175;50.140;18.990;2023-05-24T04:14:24;98283.06;;;15.55;67.58
39491;BME280;25175;50.140;18.990;2023-05-24T04:17:29;98290.91;;;15.50;67.87
39491;BME280;25175;50.140;18.990;2023-05-24T04:28:09;98317.41;;;15.34;67.43
39491;BME280;25175;50.140;18.990;2023-05-24T04:31:18;98313.25;;;15.22;66.98
39491;BME280;25175;50.140;18.990;2023-05-24T04:34:28;98324.38;;;15.07;67.37
39491;BME280;25175;50.140;18.990;2023-05-24T04:37:43;98333.66;;;14.93;67.78
39491;BME280;25175;50.140;18.990;2023-05-24T04:40:52;98334.28;;;14.84;68.29
39491;BME280;25175;50.140;18.990;2023-05-24T04:43:58;98326.16;;;14.73;68.76
39491;BME280;25175;50.140;18.990;2023-05-24T04:47:26;98344.44;;;14.63;68.63
39491;BME280;25175;50.140;18.990;2023-05-24T04:50:31;98334.50;;;14.54;68.55
39491;BME280;25175;50.140;18.990;2023-05-24T04:53:48;98347.78;;;14.43;67.84
39491;BME280;25175;50.140;18.990;2023-05-24T04:56:54;98350.69;;;14.30;67.95
39491;BME280;25175;50.140;18.990;2023-05-24T05:00:00;98351.63;;;14.24;68.28
39491;BME280;25175;50.140;18.990;2023-05-24T05:03:25;98358.06;;;14.16;67.99
39491;BME280;25175;50.140;18.990;2023-05-24T05:06:33;98367.72;;;14.11;67.93
39491;BME280;25175;50.140;18.990;2023-05-24T05:09:40;98371.31;;;14.05;68.21
39491;BME280;25175;50.140;18.990;2023-05-24T05:12:50;98374.38;;;14.02;68.47
39491;BME280;25175;50.140;18.990;2023-05-24T05:15:56;98387.03;;;14.00;68.33
39491;BME280;25175;50.140;18.990;2023-05-24T05:19:07;98396.19;;;13.97;68.27
39491;BME280;25175;50.140;18.990;2023-05-24T05:22:13;98408.47;;;13.92;67.91
39491;BME280;25175;50.140;18.990;2023-05-24T05:25:21;98404.06;;;13.86;67.88
39491;BME280;25175;50.140;18.990;2023-05-24T05:28:26;98409.84;;;13.83;67.83
39491;BME280;25175;50.140;18.990;2023-05-24T05:31:33;98425.66;;;13.83;67.66
39491;BME280;25175;50.140;18.990;2023-05-24T05:34:40;98402.34;;;13.68;67.65
39491;BME280;25175;50.140;18.990;2023-05-24T05:38:01;98422.66;;;13.68;67.65
39491;BME280;25175;50.140;18.990;2023-05-24T05:41:21;98416.22;;;13.64;68.03
39491;BME280;25175;50.140;18.990;2023-05-24T05:44:27;98415.34;;;13.58;67.75
39491;BME280;25175;50.140;18.990;2023-05-24T05:47:32;98428.03;;;13.50;67.55
39491;BME280;25175;50.140;18.990;2023-05-24T05:50:49;98434.78;;;13.46;67.99
39491;BME280;25175;50.140;18.990;2023-05-24T05:53:54;98443.53;;;13.46;67.63
39491;BME280;25175;50.140;18.990;2023-05-24T05:57:03;98444.19;;;13.42;67.00
39491;BME280;25175;50.140;18.990;2023-05-24T06:00:12;98449.56;;;13.35;66.59
39491;BME280;25175;50.140;18.990;2023-05-24T06:03:19;98459.16;;;13.30;66.70
39491;BME280;25175;50.140;18.990;2023-05-24T06:06:27;98455.63;;;13.24;66.35
39491;BME280;25175;50.140;18.990;2023-05-24T06:09:34;98462.00;;;13.17;66.18
39491;BME280;25175;50.140;18.990;2023-05-24T06:12:40;98464.03;;;13.15;66.48
39491;BME280;25175;50.140;18.990;2023-05-24T06:15:45;98465.53;;;13.11;66.86
39491;BME280;25175;50.140;18.990;2023-05-24T06:18:53;98470.91;;;13.04;66.57
39491;BME280;25175;50.140;18.990;2023-05-24T06:22:01;98480.06;;;13.02;66.74
39491;BME280;25175;50.140;18.990;2023-05-24T06:25:08;98487.50;;;13.05;66.94
39491;BME280;25175;50.140;18.990;2023-05-24T06:28:22;98479.00;;;13.03;66.43
39491;BME280;25175;50.140;18.990;2023-05-24T06:31:27;98486.19;;;12.96;66.67
39491;BME280;25175;50.140;18.990;2023-05-24T06:34:36;98490.75;;;12.89;66.79
39491;BME280;25175;50.140;18.990;2023-05-24T06:37:47;98494.38;;;12.88;67.38
39491;BME280;25175;50.140;18.990;2023-05-24T06:40:53;98497.00;;;12.88;67.16
39491;BME280;25175;50.140;18.990;2023-05-24T06:43:58;98506.16;;;12.85;67.14
39491;BME280;25175;50.140;18.990;2023-05-24T06:47:19;98501.34;;;12.82;67.22
39491;BME280;25175;50.140;18.990;2023-05-24T06:50:39;98505.78;;;12.82;66.87
39491;BME280;25175;50.140;18.990;2023-05-24T06:53:51;98515.28;;;12.83;67.05
39491;BME280;25175;50.140;18.990;2023-05-24T06:56:56;98492.28;;;12.78;66.79
39491;BME280;25175;50.140;18.990;2023-05-24T07:00:04;98512.22;;;12.86;66.68
39491;BME280;25175;50.140;18.990;2023-05-24T07:03:12;98520.72;;;12.88;66.37
39491;BME280;25175;50.140;18.990;2023-05-24T07:06:18;98533.31;;;12.86;66.18
39491;BME280;25175;50.140;18.990;2023-05-24T07:09:26;98526.06;;;12.81;66.47
39491;BME280;25175;50.140;18.990;2023-05-24T07:12:35;98512.47;;;12.66;66.45
39491;BME280;25175;50.140;18.990;2023-05-24T07:15:41;98544.94;;;12.78;66.22
39491;BME280;25175;50.140;18.990;2023-05-24T07:18:48;98526.00;;;12.70;66.35
39491;BME280;25175;50.140;18.990;2023-05-24T07:21:53;98563.16;;;12.80;66.51
39491;BME280;25175;50.140;18.990;2023-05-24T07:25:03;98554.78;;;12.83;66.29
39491;BME280;25175;50.140;18.990;2023-05-24T07:28:10;98543.53;;;12.76;65.73
39491;BME280;25175;50.140;18.990;2023-05-24T07:31:16;98561.44;;;12.85;65.71
39491;BME280;25175;50.140;18.990;2023-05-24T07:37:45;98561.84;;;12.89;66.05
39491;BME280;25175;50.140;18.990;2023-05-24T07:41:23;98560.34;;;12.93;65.75
39491;BME280;25175;50.140;18.990;2023-05-24T07:44:35;98563.59;;;12.95;65.72
39491;BME280;25175;50.140;18.990;2023-05-24T07:47:41;98565.19;;;12.96;65.34
39491;BME280;25175;50.140;18.990;2023-05-24T07:50:48;98316.66;;;11.30;65.05
39491;BME280;25175;50.140;18.990;2023-05-24T07:53:55;98572.28;;;12.95;65.49
39491;BME280;25175;50.140;18.990;2023-05-24T07:57:07;98578.31;;;13.02;65.59
39491;BME280;25175;50.140;18.990;2023-05-24T08:00:13;98576.06;;;13.06;65.13
39491;BME280;25175;50.140;18.990;2023-05-24T08:03:21;98573.84;;;13.03;64.75
39491;BME280;25175;50.140;18.990;2023-05-24T08:06:27;98582.78;;;13.02;64.62
39491;BME280;25175;50.140;18.990;2023-05-24T08:09:33;98590.69;;;13.02;64.50
39491;BME280;25175;50.140;18.990;2023-05-24T08:12:41;98589.88;;;13.01;64.61
39491;BME280;25175;50.140;18.990;2023-05-24T08:15:47;98591.25;;;13.04;64.77
39491;BME280;25175;50.140;18.990;2023-05-24T08:19:08;98595.38;;;13.00;64.50
39491;BME280;25175;50.140;18.990;2023-05-24T08:22:15;98599.00;;;12.99;65.12
39491;BME280;25175;50.140;18.990;2023-05-24T08:25:20;98602.66;;;12.98;64.80
39491;BME280;25175;50.140;18.990;2023-05-24T08:28:30;98592.41;;;12.90;65.35
39491;BME280;25175;50.140;18.990;2023-05-24T08:31:39;98598.13;;;13.05;65.08
39491;BME280;25175;50.140;18.990;2023-05-24T08:34:45;98631.59;;;13.04;64.77
39491;BME280;25175;50.140;18.990;2023-05-24T08:37:53;98616.22;;;13.01;64.40
39491;BME280;25175;50.140;18.990;2023-05-24T08:40:59;98626.09;;;13.06;64.52
39491;BME280;25175;50.140;18.990;2023-05-24T08:44:12;98633.34;;;13.10;64.13
39491;BME280;25175;50.140;18.990;2023-05-24T08:50:56;98640.88;;;13.07;63.83
39491;BME280;25175;50.140;18.990;2023-05-24T08:54:04;98638.81;;;13.09;64.05
39491;BME280;25175;50.140;18.990;2023-05-24T08:57:14;98656.84;;;13.12;64.32
39491;BME280;25175;50.140;18.990;2023-05-24T09:00:26;98638.09;;;13.02;63.65
39491;BME280;25175;50.140;18.990;2023-05-24T09:03:32;98664.59;;;13.07;63.66
39491;BME280;25175;50.140;18.990;2023-05-24T09:06:40;98664.44;;;13.02;63.49
39491;BME280;25175;50.140;18.990;2023-05-24T09:09:50;98659.56;;;12.81;63.36
39491;BME280;25175;50.140;18.990;2023-05-24T09:13:02;98670.13;;;12.99;63.75
39491;BME280;25175;50.140;18.990;2023-05-24T09:16:16;98681.66;;;13.04;63.86
39491;BME280;25175;50.140;18.990;2023-05-24T09:19:23;98653.09;;;13.01;63.60
39491;BME280;25175;50.140;18.990;2023-05-24T09:22:41;98672.44;;;13.13;62.75
39491;BME280;25175;50.140;18.990;2023-05-24T09:25:48;98674.84;;;13.15;63.05
39491;BME280;25175;50.140;18.990;2023-05-24T09:28:54;98683.09;;;13.18;63.10
39491;BME280;25175;50.140;18.990;2023-05-24T09:32:05;98678.34;;;13.09;62.45
39491;BME280;25175;50.140;18.990;2023-05-24T09:35:11;98687.78;;;13.16;62.64
39491;BME280;25175;50.140;18.990;2023-05-24T09:38:21;98487.56;;;11.84;62.46
39491;BME280;25175;50.140;18.990;2023-05-24T09:41:29;98698.63;;;13.08;62.45
39491;BME280;25175;50.140;18.990;2023-05-24T09:44:35;98696.63;;;13.04;62.47
39491;BME280;25175;50.140;18.990;2023-05-24T09:47:43;98700.28;;;13.03;62.82
39491;BME280;25175;50.140;18.990;2023-05-24T09:51:01;98696.41;;;13.05;62.91
39491;BME280;25175;50.140;18.990;2023-05-24T09:54:11;98701.03;;;13.10;63.73
39491;BME280;25175;50.140;18.990;2023-05-24T09:57:21;98707.69;;;13.12;63.28
39491;BME280;25175;50.140;18.990;2023-05-24T10:00:28;98696.38;;;13.12;63.01
39491;BME280;25175;50.140;18.990;2023-05-24T10:03:51;98710.31;;;13.12;63.95
39491;BME280;25175;50.140;18.990;2023-05-24T10:06:59;98704.41;;;13.17;63.13
39491;BME280;25175;50.140;18.990;2023-05-24T10:10:09;98717.59;;;13.17;62.90
39491;BME280;25175;50.140;18.990;2023-05-24T10:13:15;98687.28;;;13.08;62.89
39491;BME280;25175;50.140;18.990;2023-05-24T10:16:22;98719.34;;;13.23;61.86
39491;BME280;25175;50.140;18.990;2023-05-24T10:19:31;98727.84;;;13.25;62.15
39491;BME280;25175;50.140;18.990;2023-05-24T10:22:42;98725.00;;;13.26;61.98
39491;BME280;25175;50.140;18.990;2023-05-24T10:25:53;98721.53;;;13.26;61.91
39491;BME280;25175;50.140;18.990;2023-05-24T10:29:14;98709.84;;;13.22;61.71
39491;BME280;25175;50.140;18.990;2023-05-24T10:32:38;98731.91;;;13.21;61.61
39491;BME280;25175;50.140;18.990;2023-05-24T10:35:51;98719.50;;;13.46;61.83
39491;BME280;25175;50.140;18.990;2023-05-24T10:38:57;98727.47;;;13.57;61.75
39491;BME280;25175;50.140;18.990;2023-05-24T10:42:05;98719.34;;;13.59;61.46
39491;BME280;25175;50.140;18.990;2023-05-24T10:45:30;98727.34;;;13.82;60.87
39491;BME280;25175;50.140;18.990;2023-05-24T10:48:58;98734.75;;;13.91;60.49
39491;BME280;25175;50.140;18.990;2023-05-24T10:52:10;98742.47;;;13.93;60.13
39491;BME280;25175;50.140;18.990;2023-05-24T10:55:27;98741.69;;;13.92;60.27
39491;BME280;25175;50.140;18.990;2023-05-24T10:58:44;98739.97;;;13.98;60.12
39491;BME280;25175;50.140;18.990;2023-05-24T11:02:21;98739.88;;;14.04;60.02
39491;BME280;25175;50.140;18.990;2023-05-24T11:05:48;98741.84;;;14.09;59.77
39491;BME280;25175;50.140;18.990;2023-05-24T11:08:59;98737.59;;;14.08;60.04
39491;BME280;25175;50.140;18.990;2023-05-24T11:12:08;98733.34;;;14.07;59.94
39491;BME280;25175;50.140;18.990;2023-05-24T11:15:22;98725.44;;;14.07;59.84
39491;BME280;25175;50.140;18.990;2023-05-24T11:18:28;98698.34;;;13.82;59.87
39491;BME280;25175;50.140;18.990;2023-05-24T11:21:38;98734.19;;;14.07;60.03
39491;BME280;25175;50.140;18.990;2023-05-24T11:24:51;98719.94;;;14.08;60.30
39491;BME280;25175;50.140;18.990;2023-05-24T11:28:06;98721.22;;;13.88;60.25
39491;BME280;25175;50.140;18.990;2023-05-24T11:31:13;98735.84;;;14.31;60.02
39491;BME280;25175;50.140;18.990;2023-05-24T11:34:19;98727.94;;;14.31;59.68
39491;BME280;25175;50.140;18.990;2023-05-24T11:37:26;98731.97;;;14.45;59.38
39491;BME280;25175;50.140;18.990;2023-05-24T11:40:34;98734.97;;;14.49;59.43
39491;BME280;25175;50.140;18.990;2023-05-24T11:43:43;98743.81;;;14.54;59.19
39491;BME280;25175;50.140;18.990;2023-05-24T11:46:56;98743.13;;;14.58;58.91
39491;BME280;25175;50.140;18.990;2023-05-24T11:50:05;98737.50;;;14.55;58.69
39491;BME280;25175;50.140;18.990;2023-05-24T11:53:26;98732.47;;;14.54;59.15
39491;BME280;25175;50.140;18.990;2023-05-24T11:56:35;98731.88;;;14.52;59.46
39491;BME280;25175;50.140;18.990;2023-05-24T11:59:40;98728.53;;;14.56;59.72
39491;BME280;25175;50.140;18.990;2023-05-24T12:02:47;98726.03;;;14.61;59.76
39491;BME280;25175;50.140;18.990;2023-05-24T12:05:56;98739.13;;;14.68;59.35
39491;BME280;25175;50.140;18.990;2023-05-24T12:09:03;98734.69;;;14.68;58.94
39491;BME280;25175;50.140;18.990;2023-05-24T12:12:16;98741.78;;;14.68;59.03
39491;BME280;25175;50.140;18.990;2023-05-24T12:15:22;98742.81;;;14.67;58.58
39491;BME280;25175;50.140;18.990;2023-05-24T12:18:28;98743.38;;;14.68;58.88
39491;BME280;25175;50.140;18.990;2023-05-24T12:21:34;98736.19;;;14.76;58.43
39491;BME280;25175;50.140;18.990;2023-05-24T12:24:48;98707.66;;;14.66;58.54
39491;BME280;25175;50.140;18.990;2023-05-24T12:28:02;98743.63;;;14.78;58.07
39491;BME280;25175;50.140;18.990;2023-05-24T12:31:08;98738.72;;;14.82;58.03
39491;BME280;25175;50.140;18.990;2023-05-24T12:34:21;98749.88;;;14.84;58.52
39491;BME280;25175;50.140;18.990;2023-05-24T12:37:30;98742.88;;;14.90;58.85
39491;BME280;25175;50.140;18.990;2023-05-24T12:40:36;98734.94;;;14.90;57.96
39491;BME280;25175;50.140;18.990;2023-05-24T12:43:50;98736.75;;;14.89;58.38
39491;BME280;25175;50.140;18.990;2023-05-24T12:46:58;98744.69;;;14.89;58.17
39491;BME280;25175;50.140;18.990;2023-05-24T12:50:05;98706.75;;;14.72;58.16
39491;BME280;25175;50.140;18.990;2023-05-24T12:53:14;98735.75;;;14.90;58.14
39491;BME280;25175;50.140;18.990;2023-05-24T12:56:23;98733.13;;;14.90;57.84
39491;BME280;25175;50.140;18.990;2023-05-24T12:59:33;98735.84;;;14.84;58.22
39491;BME280;25175;50.140;18.990;2023-05-24T13:02:39;98723.31;;;14.79;58.53
39491;BME280;25175;50.140;18.990;2023-05-24T13:05:45;98739.19;;;14.91;58.21
39491;BME280;25175;50.140;18.990;2023-05-24T13:08:50;98739.31;;;14.96;58.37
39491;BME280;25175;50.140;18.990;2023-05-24T13:11:56;98744.16;;;14.99;58.22
39491;BME280;25175;50.140;18.990;2023-05-24T13:15:05;98740.47;;;15.00;58.00
39491;BME280;25175;50.140;18.990;2023-05-24T13:18:12;98739.66;;;14.99;57.23
39491;BME280;25175;50.140;18.990;2023-05-24T13:21:18;98733.31;;;15.00;57.75
39491;BME280;25175;50.140;18.990;2023-05-24T13:24:24;98740.00;;;15.02;57.95
39491;BME280;25175;50.140;18.990;2023-05-24T13:27:31;98727.03;;;15.01;58.21
39491;BME280;25175;50.140;18.990;2023-05-24T13:30:40;98744.13;;;15.10;58.07
39491;BME280;25175;50.140;18.990;2023-05-24T13:33:45;98744.38;;;15.09;57.82
39491;BME280;25175;50.140;18.990;2023-05-24T13:36:51;98743.22;;;15.05;58.19
39491;BME280;25175;50.140;18.990;2023-05-24T13:39:57;98737.81;;;15.00;57.68
39491;BME280;25175;50.140;18.990;2023-05-24T13:43:03;98740.91;;;14.97;58.18
39491;BME280;25175;50.140;18.990;2023-05-24T13:46:11;98731.16;;;14.97;57.85
39491;BME280;25175;50.140;18.990;2023-05-24T13:49:17;98740.69;;;14.98;57.71
39491;BME280;25175;50.140;18.990;2023-05-24T13:52:22;98736.09;;;14.94;57.94
39491;BME280;25175;50.140;18.990;2023-05-24T13:55:31;98738.16;;;15.03;57.56
39491;BME280;25175;50.140;18.990;2023-05-24T13:58:38;98737.81;;;15.00;57.50
39491;BME280;25175;50.140;18.990;2023-05-24T14:01:48;98737.13;;;14.93;57.70
39491;BME280;25175;50.140;18.990;2023-05-24T14:04:54;98731.72;;;14.88;58.25
39491;BME280;25175;50.140;18.990;2023-05-24T14:08:00;98711.91;;;14.67;58.25
39491;BME280;25175;50.140;18.990;2023-05-24T14:11:07;98737.53;;;14.78;58.25
39491;BME280;25175;50.140;18.990;2023-05-24T14:14:14;98687.44;;;14.49;58.09
39491;BME280;25175;50.140;18.990;2023-05-24T14:17:22;98735.13;;;14.77;58.41
39491;BME280;25175;50.140;18.990;2023-05-24T14:20:28;98740.88;;;14.73;58.34
39491;BME280;25175;50.140;18.990;2023-05-24T14:23:33;98742.47;;;14.74;58.70
39491;BME280;25175;50.140;18.990;2023-05-24T14:26:40;98741.91;;;14.73;58.38
39491;BME280;25175;50.140;18.990;2023-05-24T14:29:48;98745.59;;;14.72;58.68
39491;BME280;25175;50.140;18.990;2023-05-24T14:32:58;98750.75;;;14.67;58.28
39491;BME280;25175;50.140;18.990;2023-05-24T14:36:05;98746.50;;;14.66;58.78
39491;BME280;25175;50.140;18.990;2023-05-24T14:39:11;98750.75;;;14.67;58.75
39491;BME280;25175;50.140;18.990;2023-05-24T14:42:17;98735.13;;;14.65;58.77
39491;BME280;25175;50.140;18.990;2023-05-24T14:45:23;98738.31;;;14.67;58.99
39491;BME280;25175;50.140;18.990;2023-05-24T14:48:34;98736.28;;;14.69;59.08
39491;BME280;25175;50.140;18.990;2023-05-24T14:51:45;98749.25;;;14.71;58.64
39491;BME280;25175;50.140;18.990;2023-05-24T14:54:52;98744.41;;;14.68;58.15
39491;BME280;25175;50.140;18.990;2023-05-24T14:57:58;98741.78;;;14.68;58.56
39491;BME280;25175;50.140;18.990;2023-05-24T15:01:05;98743.16;;;14.70;58.57
39491;BME280;25175;50.140;18.990;2023-05-24T15:04:14;98755.94;;;14.73;58.27
39491;BME280;25175;50.140;18.990;2023-05-24T15:07:22;98737.19;;;14.63;57.53
39491;BME280;25175;50.140;18.990;2023-05-24T15:10:29;98747.63;;;14.69;58.27
39491;BME280;25175;50.140;18.990;2023-05-24T15:13:34;98734.78;;;14.62;58.26
39491;BME280;25175;50.140;18.990;2023-05-24T15:16:45;98743.50;;;14.73;58.83
39491;BME280;25175;50.140;18.990;2023-05-24T15:19:53;98748.56;;;14.75;58.38
39491;BME280;25175;50.140;18.990;2023-05-24T15:23:03;98752.03;;;14.76;58.45
39491;BME280;25175;50.140;18.990;2023-05-24T15:26:11;98756.28;;;14.77;58.15
39491;BME280;25175;50.140;18.990;2023-05-24T15:29:17;98757.31;;;14.76;58.17
39491;BME280;25175;50.140;18.990;2023-05-24T15:32:23;98762.13;;;14.78;58.22
39491;BME280;25175;50.140;18.990;2023-05-24T15:35:35;98762.13;;;14.78;58.32
39491;BME280;25175;50.140;18.990;2023-05-24T15:38:40;98755.03;;;14.79;58.48
39491;BME280;25175;50.140;18.990;2023-05-24T15:41:47;98766.38;;;14.79;58.82
39491;BME280;25175;50.140;18.990;2023-05-24T15:44:53;98751.44;;;14.73;58.60
39491;BME280;25175;50.140;18.990;2023-05-24T15:48:13;98769.00;;;14.79;58.45
39491;BME280;25175;50.140;18.990;2023-05-24T15:51:22;98768.44;;;14.77;58.07
39491;BME280;25175;50.140;18.990;2023-05-24T15:54:27;98772.56;;;14.73;58.63
39491;BME280;25175;50.140;18.990;2023-05-24T15:57:35;98775.91;;;14.69;58.65
39491;BME280;25175;50.140;18.990;2023-05-24T16:00:44;98771.88;;;14.67;58.74
39491;BME280;25175;50.140;18.990;2023-05-24T16:03:50;98777.59;;;14.63;58.78
39491;BME280;25175;50.140;18.990;2023-05-24T16:06:57;98529.78;;;13.10;58.83
39491;BME280;25175;50.140;18.990;2023-05-24T16:10:05;98768.41;;;14.55;58.85
39491;BME280;25175;50.140;18.990;2023-05-24T16:13:27;98775.72;;;14.52;59.20
39491;BME280;25175;50.140;18.990;2023-05-24T16:16:34;98757.72;;;14.50;59.24
39491;BME280;25175;50.140;18.990;2023-05-24T16:19:39;98770.16;;;14.61;58.85
39491;BME280;25175;50.140;18.990;2023-05-24T16:23:22;98775.84;;;14.58;58.95
39491;BME280;25175;50.140;18.990;2023-05-24T16:26:29;98759.88;;;14.52;59.34
39491;BME280;25175;50.140;18.990;2023-05-24T16:29:38;98771.19;;;14.60;58.94
39491;BME280;25175;50.140;18.990;2023-05-24T16:32:44;98780.50;;;14.62;59.17
39491;BME280;25175;50.140;18.990;2023-05-24T16:35:55;98779.66;;;14.62;58.78
39491;BME280;25175;50.140;18.990;2023-05-24T16:39:08;98828.25;;;14.61;58.87
39491;BME280;25175;50.140;18.990;2023-05-24T16:42:13;98778.72;;;14.56;59.15
39491;BME280;25175;50.140;18.990;2023-05-24T16:45:19;98793.44;;;14.63;58.95
39491;BME280;25175;50.140;18.990;2023-05-24T16:48:25;98793.44;;;14.63;58.86
39491;BME280;25175;50.140;18.990;2023-05-24T16:51:32;98820.31;;;14.61;58.60
39491;BME280;25175;50.140;18.990;2023-05-24T16:54:51;98816.28;;;14.58;58.55
39491;BME280;25175;50.140;18.990;2023-05-24T16:58:14;98821.44;;;14.53;58.59
39491;BME280;25175;50.140;18.990;2023-05-24T17:01:20;98816.25;;;14.47;58.76
39491;BME280;25175;50.140;18.990;2023-05-24T17:04:27;98823.38;;;14.46;58.76
39491;BME280;25175;50.140;18.990;2023-05-24T17:07:46;98830.25;;;14.47;58.58
39491;BME280;25175;50.140;18.990;2023-05-24T17:10:55;98815.53;;;14.40;59.13